Time;durP1;ratioP1;P1;durP2;ratioP2;P2;SDS_P1;SDS_P2;PMS_P1;PMS_P2;Temp;Humidity;BMP_temperature;BMP_pressure;BME280_temperature;BME280_humidity;BME280_pressure;Samples;Min_cycle;Max_cycle;Signal;HPM_P1;HPM_P2
2022/10/03 00:02:15;;;;;;;0.60;0.60;;;8.10;99.90;;;;;;5016296;28;20735;-64
2022/10/03 00:04:46;;;;;;;0.60;0.60;;;8.00;99.90;;;;;;5016604;28;20745;-64
2022/10/03 00:07:32;;;;;;;0.68;0.68;;;7.90;99.90;;;;;;5016625;28;20229;-64
2022/10/03 00:10:21;;;;;;;0.60;0.60;;;7.80;99.90;;;;;;5016614;28;20560;-64
2022/10/03 00:13:05;;;;;;;0.70;0.70;;;7.70;99.90;;;;;;5016457;28;20199;-64
2022/10/03 00:15:46;;;;;;;0.85;0.80;;;7.60;99.90;;;;;;5016262;28;20265;-64
2022/10/03 00:18:27;;;;;;;0.88;0.88;;;7.50;99.90;;;;;;5034205;28;20681;-64
2022/10/03 00:21:01;;;;;;;0.65;0.65;;;7.50;99.90;;;;;;5036226;28;20198;-64
2022/10/03 00:23:59;;;;;;;0.70;0.70;;;7.40;99.90;;;;;;5035734;28;20207;-65
2022/10/03 00:26:56;;;;;;;0.80;0.80;;;7.30;99.90;;;;;;5014837;28;20211;-64
2022/10/03 00:29:37;;;;;;;0.70;0.70;;;7.30;99.90;;;;;;5015894;28;20226;-65
2022/10/03 00:32:27;;;;;;;0.60;0.60;;;7.20;99.90;;;;;;5016170;28;20534;-64
2022/10/03 00:35:02;;;;;;;0.50;0.50;;;7.10;99.90;;;;;;5016099;28;20553;-65
2022/10/03 00:37:40;;;;;;;0.57;0.57;;;7.10;99.90;;;;;;5015842;28;20229;-64
2022/10/03 00:40:33;;;;;;;0.60;0.60;;;7.10;99.90;;;;;;5016083;28;20194;-64
2022/10/03 00:43:37;;;;;;;0.82;0.82;;;7.10;99.90;;;;;;5015947;28;20201;-64
2022/10/03 00:46:37;;;;;;;0.70;0.70;;;7.00;99.90;;;;;;5035258;28;20218;-64
2022/10/03 00:49:43;;;;;;;0.60;0.60;;;6.90;99.90;;;;;;5035594;28;20601;-64
2022/10/03 00:52:27;;;;;;;0.77;0.77;;;6.90;99.90;;;;;;5050761;28;20206;-64
2022/10/03 00:54:59;;;;;;;0.70;0.70;;;6.90;99.90;;;;;;5035405;28;20214;-64
2022/10/03 00:57:59;;;;;;;0.63;0.63;;;6.80;99.90;;;;;;5018942;28;20198;-64
2022/10/03 01:00:31;;;;;;;0.70;0.70;;;6.70;99.90;;;;;;5015679;28;20222;-68
2022/10/03 01:02:57;;;;;;;0.70;0.70;;;6.60;99.90;;;;;;5015674;28;20654;-70
2022/10/03 01:05:36;;;;;;;0.80;0.80;;;6.60;99.90;;;;;;5015547;28;20278;-70
2022/10/03 01:08:20;;;;;;;1.48;1.15;;;6.50;99.90;;;;;;5014451;28;20708;-70
2022/10/03 01:11:31;;;;;;;0.63;0.63;;;6.40;99.90;;;;;;5015652;28;20194;-71
2022/10/03 01:14:16;;;;;;;0.60;0.60;;;6.40;99.90;;;;;;5005855;28;20586;-70
2022/10/03 01:17:08;;;;;;;0.80;0.80;;;6.30;99.90;;;;;;5034666;28;20205;-70
2022/10/03 01:19:39;;;;;;;0.60;0.60;;;6.30;99.90;;;;;;5033867;28;20703;-70
2022/10/03 01:22:11;;;;;;;0.57;0.57;;;6.20;99.90;;;;;;5026780;28;20216;-69
2022/10/03 01:24:46;;;;;;;0.50;0.50;;;6.20;99.90;;;;;;5015211;28;20217;-70
2022/10/03 01:27:17;;;;;;;0.80;0.80;;;6.20;99.90;;;;;;5015340;28;20191;-70
2022/10/03 01:32:48;;;;;;;0.63;0.63;;;6.20;99.90;;;;;;5015354;28;20257;-70
2022/10/03 01:35:18;;;;;;;0.70;0.70;;;6.10;99.90;;;;;;5015024;28;20215;-70
2022/10/03 01:38:16;;;;;;;0.60;0.60;;;6.10;99.90;;;;;;5030093;28;20198;-70
2022/10/03 01:41:01;;;;;;;0.55;0.55;;;6.00;99.90;;;;;;5020439;28;20198;-71
2022/10/03 01:43:41;;;;;;;0.52;0.52;;;6.00;99.90;;;;;;5034585;28;20584;-70
2022/10/03 01:46:17;;;;;;;0.77;0.77;;;5.90;99.90;;;;;;5015069;28;20637;-70
2022/10/03 01:48:52;;;;;;;0.70;0.70;;;5.80;99.90;;;;;;5014821;28;20670;-71
2022/10/03 01:51:28;;;;;;;0.70;0.70;;;5.70;99.90;;;;;;5013555;28;20565;-70
2022/10/03 01:53:59;;;;;;;0.52;0.52;;;5.70;99.90;;;;;;5032681;28;20680;-71
2022/10/03 01:56:41;;;;;;;0.50;0.50;;;5.60;99.90;;;;;;5034278;28;20201;-71
2022/10/03 01:59:18;;;;;;;0.70;0.70;;;5.60;99.90;;;;;;5034567;28;20212;-71
2022/10/03 02:02:06;;;;;;;0.70;0.70;;;5.50;99.90;;;;;;5029421;28;20202;-71
2022/10/03 02:04:48;;;;;;;1.10;1.08;;;5.50;99.90;;;;;;5034322;28;20197;-71
2022/10/03 02:07:26;;;;;;;0.50;0.50;;;5.40;99.90;;;;;;5034341;28;20661;-71
2022/10/03 02:10:06;;;;;;;0.82;0.82;;;5.30;99.90;;;;;;5049486;28;20224;-70
2022/10/03 02:12:35;;;;;;;0.60;0.60;;;5.30;99.90;;;;;;5051917;28;20585;-71
2022/10/03 02:15:10;;;;;;;0.65;0.65;;;5.20;99.90;;;;;;5054007;28;20205;-70
2022/10/03 02:17:56;;;;;;;0.70;0.70;;;5.20;99.90;;;;;;5051840;28;20196;-70
2022/10/03 02:20:25;;;;;;;0.80;0.80;;;5.20;99.90;;;;;;5033960;28;20193;-71
2022/10/03 02:22:56;;;;;;;0.52;0.52;;;5.20;99.90;;;;;;5032631;28;20197;-71
2022/10/03 02:25:55;;;;;;;0.60;0.60;;;5.10;99.90;;;;;;5033826;28;20198;-71
2022/10/03 02:29:09;;;;;;;0.60;0.60;;;5.10;99.90;;;;;;5022297;28;20703;-70
2022/10/03 02:31:55;;;;;;;0.70;0.70;;;5.10;99.90;;;;;;5012673;28;20213;-70
2022/10/03 02:34:24;;;;;;;0.60;0.60;;;5.00;99.90;;;;;;4992415;28;20213;-70
2022/10/03 02:37:35;;;;;;;0.60;0.60;;;5.00;99.90;;;;;;5013893;28;20195;-70
2022/10/03 02:40:30;;;;;;;0.60;0.60;;;5.00;99.90;;;;;;5013959;28;20214;-69
2022/10/03 02:43:34;;;;;;;0.50;0.50;;;4.90;99.90;;;;;;5013999;28;20197;-70
2022/10/03 02:46:57;;;;;;;0.70;0.70;;;4.80;99.90;;;;;;5013619;28;20217;-70
2022/10/03 02:49:41;;;;;;;0.70;0.70;;;4.80;99.90;;;;;;5025351;28;20194;-71
2022/10/03 02:52:25;;;;;;;0.70;0.70;;;4.70;99.90;;;;;;5033607;28;20202;-71
2022/10/03 02:55:13;;;;;;;0.70;0.70;;;4.70;99.90;;;;;;5048786;28;20673;-70
2022/10/03 02:57:54;;;;;;;0.77;0.77;;;4.70;99.90;;;;;;5033300;28;20201;-70
2022/10/03 03:00:28;;;;;;;0.75;0.75;;;4.60;99.90;;;;;;5031022;28;20198;-71
2022/10/03 03:03:05;;;;;;;0.68;0.68;;;4.60;99.90;;;;;;5027578;28;20199;-71
2022/10/03 03:05:49;;;;;;;0.90;0.90;;;4.50;99.90;;;;;;5033229;28;20750;-71
2022/10/03 03:08:57;;;;;;;0.55;0.55;;;4.50;99.90;;;;;;5033141;28;20197;-72
2022/10/03 03:11:58;;;;;;;0.63;0.63;;;4.50;99.90;;;;;;5031861;28;20688;-71
2022/10/03 03:14:42;;;;;;;0.70;0.70;;;4.40;99.90;;;;;;5027175;28;20627;-71
2022/10/03 03:17:17;;;;;;;0.60;0.60;;;4.50;99.90;;;;;;5013410;28;20218;-71
2022/10/03 03:20:01;;;;;;;0.57;0.57;;;4.50;99.90;;;;;;5031654;28;20721;-71
2022/10/03 03:22:35;;;;;;;0.70;0.70;;;4.50;99.90;;;;;;5032903;28;20554;-72
2022/10/03 03:25:21;;;;;;;0.60;0.60;;;4.50;99.90;;;;;;5048281;28;20193;-71
2022/10/03 03:28:10;;;;;;;0.70;0.70;;;4.50;99.90;;;;;;5057692;28;20569;-71
2022/10/03 03:30:50;;;;;;;0.60;0.60;;;4.50;99.90;;;;;;5032141;28;20562;-71
2022/10/03 03:33:51;;;;;;;0.60;0.60;;;4.50;99.90;;;;;;5032801;28;20657;-70
2022/10/03 03:36:33;;;;;;;0.40;0.40;;;4.50;99.90;;;;;;5032761;28;20202;-72
2022/10/03 03:39:07;;;;;;;0.50;0.50;;;4.50;99.90;;;;;;5048230;28;20688;-71
2022/10/03 03:41:49;;;;;;;0.50;0.50;;;4.50;99.90;;;;;;5032763;28;20759;-71
2022/10/03 03:44:53;;;;;;;0.55;0.55;;;4.50;99.90;;;;;;5032618;28;20186;-71
2022/10/03 03:47:33;;;;;;;0.60;0.60;;;4.50;99.90;;;;;;5048029;28;20240;-70
2022/10/03 03:50:09;;;;;;;0.60;0.60;;;4.50;99.90;;;;;;5032773;28;20193;-71
2022/10/03 03:53:13;;;;;;;0.50;0.50;;;4.60;99.90;;;;;;5032438;28;20584;-71
2022/10/03 03:56:07;;;;;;;1.45;1.27;;;4.60;99.90;;;;;;5032452;28;20248;-71
2022/10/03 03:59:11;;;;;;;0.50;0.50;;;4.60;99.90;;;;;;5032699;28;20198;-71
2022/10/03 04:01:53;;;;;;;0.40;0.40;;;4.60;99.90;;;;;;5047751;28;20266;-71
2022/10/03 04:05:37;;;;;;;1.35;1.25;;;4.60;99.90;;;;;;5032331;28;20202;-70
2022/10/03 04:08:11;;;;;;;0.45;0.45;;;4.60;99.90;;;;;;5026733;28;20231;-71
2022/10/03 04:10:45;;;;;;;0.57;0.57;;;4.60;99.90;;;;;;5042463;28;20203;-72
2022/10/03 04:13:35;;;;;;;0.50;0.50;;;4.50;99.90;;;;;;5012888;28;20294;-72
2022/10/03 04:16:07;;;;;;;0.50;0.50;;;4.60;99.90;;;;;;5031400;28;20218;-70
2022/10/03 04:18:57;;;;;;;0.75;0.75;;;4.60;99.90;;;;;;5047644;28;20721;-70
2022/10/03 04:21:58;;;;;;;0.75;0.75;;;4.60;99.90;;;;;;5032177;28;20186;-71
2022/10/03 04:24:32;;;;;;;0.70;0.70;;;4.60;99.90;;;;;;5023699;28;20206;-70
2022/10/03 04:27:25;;;;;;;0.70;0.70;;;4.60;99.90;;;;;;5032570;28;20186;-71
2022/10/03 04:37:08;;;;;;;0.60;0.60;;;4.70;99.90;;;;;;5033023;28;20267;-70
2022/10/03 04:39:54;;;;;;;0.60;0.60;;;4.60;99.90;;;;;;5032152;28;20193;-70
2022/10/03 04:42:27;;;;;;;0.52;0.52;;;4.70;99.90;;;;;;5034841;28;20656;-70
2022/10/03 04:45:14;;;;;;;0.55;0.55;;;4.70;99.90;;;;;;5041120;28;20232;-69
2022/10/03 04:47:47;;;;;;;0.68;0.68;;;4.80;99.90;;;;;;5016076;28;20202;-70
2022/10/03 04:50:37;;;;;;;0.77;0.77;;;4.80;99.90;;;;;;5016145;28;20623;-70
2022/10/03 04:53:27;;;;;;;0.73;0.73;;;4.80;99.90;;;;;;5016089;28;20199;-70
2022/10/03 04:56:12;;;;;;;0.63;0.63;;;4.80;99.90;;;;;;5016218;28;20235;-70
2022/10/03 04:59:00;;;;;;;0.70;0.70;;;4.80;99.90;;;;;;5014881;28;20724;-70
2022/10/03 05:01:55;;;;;;;0.70;0.70;;;4.70;99.90;;;;;;5017442;28;20265;-71
2022/10/03 05:04:59;;;;;;;0.65;0.65;;;4.60;99.90;;;;;;5015571;28;20535;-71
2022/10/03 05:07:42;;;;;;;0.70;0.70;;;4.60;99.90;;;;;;5015489;28;20198;-70
2022/10/03 05:10:27;;;;;;;0.63;0.63;;;4.60;99.90;;;;;;5017185;28;20245;-70
2022/10/03 05:13:15;;;;;;;0.70;0.70;;;4.50;99.90;;;;;;5050876;28;20206;-70
2022/10/03 05:15:47;;;;;;;0.60;0.60;;;4.40;99.90;;;;;;5035419;28;20202;-70
2022/10/03 05:18:19;;;;;;;0.50;0.50;;;4.40;99.90;;;;;;5035651;28;20186;-70
2022/10/03 05:20:54;;;;;;;0.57;0.57;;;4.30;99.90;;;;;;5035516;28;20719;-70
2022/10/03 05:23:30;;;;;;;0.65;0.65;;;4.30;99.90;;;;;;5035396;28;20256;-69
2022/10/03 05:26:23;;;;;;;0.50;0.50;;;4.30;99.90;;;;;;5033821;28;20208;-69
2022/10/03 05:29:08;;;;;;;0.60;0.60;;;4.20;99.90;;;;;;5034960;28;20699;-69
2022/10/03 05:31:55;;;;;;;0.70;0.70;;;4.10;99.90;;;;;;5030866;28;20214;-69
2022/10/03 05:34:48;;;;;;;0.40;0.40;;;4.10;99.90;;;;;;5034810;28;20190;-69
2022/10/03 05:37:39;;;;;;;0.60;0.60;;;4.00;99.90;;;;;;5030081;28;20191;-69
2022/10/03 05:40:17;;;;;;;0.60;0.60;;;4.00;99.90;;;;;;5015176;28;20217;-70
2022/10/03 05:42:48;;;;;;;0.60;0.60;;;3.90;99.90;;;;;;5030160;28;20195;-70
2022/10/03 05:45:54;;;;;;;0.60;0.60;;;4.00;99.90;;;;;;5014693;28;20207;-69
2022/10/03 05:48:43;;;;;;;0.60;0.60;;;4.00;99.90;;;;;;5014809;28;20713;-69
2022/10/03 05:51:50;;;;;;;0.70;0.70;;;4.00;99.90;;;;;;5014881;28;20195;-70
2022/10/03 05:54:24;;;;;;;0.55;0.55;;;4.10;99.90;;;;;;5014286;28;20612;-70
2022/10/03 05:57:20;;;;;;;0.60;0.60;;;4.20;99.90;;;;;;5026747;28;20564;-70
2022/10/03 05:59:58;;;;;;;0.55;0.55;;;4.30;99.90;;;;;;5034471;28;20182;-70
2022/10/03 06:02:57;;;;;;;0.50;0.50;;;4.40;99.90;;;;;;5034269;28;20187;-70
2022/10/03 06:05:29;;;;;;;0.70;0.70;;;4.50;99.90;;;;;;5014469;28;20590;-71
2022/10/03 06:08:01;;;;;;;0.60;0.60;;;4.60;99.90;;;;;;5028481;28;20206;-70
2022/10/03 06:10:49;;;;;;;0.70;0.70;;;4.70;99.90;;;;;;5034241;28;20688;-71
2022/10/03 06:13:18;;;;;;;0.60;0.60;;;4.90;99.90;;;;;;5034325;28;20192;-70
2022/10/03 06:16:05;;;;;;;0.60;0.60;;;5.00;99.90;;;;;;5034012;28;20688;-71
2022/10/03 06:18:58;;;;;;;0.57;0.57;;;5.10;99.90;;;;;;5034017;28;20537;-70
2022/10/03 06:21:31;;;;;;;0.60;0.60;;;5.20;99.90;;;;;;5049250;28;20182;-70
2022/10/03 06:24:15;;;;;;;0.50;0.50;;;5.10;99.90;;;;;;5033938;28;20641;-70
2022/10/03 06:26:53;;;;;;;0.50;0.50;;;5.20;99.90;;;;;;5033818;28;20194;-71
2022/10/03 06:29:46;;;;;;;0.90;0.90;;;5.20;99.90;;;;;;5048999;28;20287;-70
2022/10/03 06:32:33;;;;;;;0.63;0.63;;;5.20;99.90;;;;;;5033920;28;20194;-71
2022/10/03 06:35:47;;;;;;;0.55;0.55;;;5.30;99.90;;;;;;5032217;28;20211;-70
2022/10/03 06:38:37;;;;;;;0.60;0.60;;;5.30;99.90;;;;;;5012033;28;20680;-71
2022/10/03 06:41:37;;;;;;;0.50;0.50;;;5.40;99.90;;;;;;5029255;28;20195;-70
2022/10/03 06:44:11;;;;;;;0.60;0.60;;;5.50;99.90;;;;;;5013745;28;20638;-70
2022/10/03 06:46:45;;;;;;;0.63;0.63;;;5.60;99.90;;;;;;5013793;28;20212;-70
2022/10/03 06:49:33;;;;;;;1.23;1.13;;;5.80;99.90;;;;;;5013844;28;20214;-71
2022/10/03 06:52:24;;;;;;;0.73;0.73;;;5.90;99.90;;;;;;5016532;28;20198;-70
2022/10/03 06:54:55;;;;;;;0.60;0.60;;;6.00;99.90;;;;;;5033488;28;20198;-71
2022/10/03 06:57:34;;;;;;;0.77;0.77;;;6.10;99.90;;;;;;5033255;28;20198;-71
2022/10/03 07:00:14;;;;;;;0.73;0.73;;;6.20;99.90;;;;;;5021703;28;20194;-70
2022/10/03 07:03:04;;;;;;;0.68;0.68;;;6.40;99.90;;;;;;5014950;28;20195;-70
2022/10/03 07:06:07;;;;;;;0.60;0.60;;;6.50;99.90;;;;;;5047533;28;20209;-70
2022/10/03 07:08:45;;;;;;;0.60;0.60;;;6.60;99.90;;;;;;5033040;28;20699;-70
2022/10/03 07:11:35;;;;;;;0.60;0.60;;;6.80;99.90;;;;;;5033207;28;20225;-71
2022/10/03 07:14:26;;;;;;;0.70;0.70;;;6.90;99.90;;;;;;5033185;28;20199;-70
2022/10/03 07:16:58;;;;;;;0.90;0.90;;;7.10;99.90;;;;;;5033007;28;20207;-70
2022/10/03 07:19:52;;;;;;;0.90;0.90;;;7.10;99.90;;;;;;5048238;28;20200;-71
2022/10/03 07:22:50;;;;;;;0.60;0.60;;;7.10;99.90;;;;;;5033101;28;20527;-71
2022/10/03 07:25:39;;;;;;;0.60;0.60;;;7.10;99.90;;;;;;5048344;28;20197;-71
2022/10/03 07:28:10;;;;;;;0.60;0.60;;;7.10;99.90;;;;;;5032799;28;20685;-70
2022/10/03 07:30:50;;;;;;;0.60;0.60;;;7.10;99.90;;;;;;5021097;28;20203;-71
2022/10/03 07:33:47;;;;;;;0.70;0.70;;;7.20;99.90;;;;;;5013170;28;20194;-71
2022/10/03 07:39:34;;;;;;;0.60;0.60;;;7.40;99.90;;;;;;5021717;28;20599;-71
2022/10/03 07:42:37;;;;;;;0.60;0.60;;;7.50;99.90;;;;;;5032463;28;20202;-71
2022/10/03 07:45:22;;;;;;;0.50;0.50;;;7.70;99.90;;;;;;5048172;28;20256;-70
2022/10/03 07:48:23;;;;;;;0.70;0.70;;;7.80;99.90;;;;;;5032774;28;20634;-71
2022/10/03 07:51:16;;;;;;;54.08;32.55;;;7.90;99.90;;;;;;5032686;28;20278;-70
2022/10/03 07:54:03;;;;;;;20.77;11.15;;;8.00;99.90;;;;;;5032168;28;20272;-70
2022/10/03 07:57:06;;;;;;;3.95;1.95;;;8.00;99.90;;;;;;5032487;28;20688;-71
2022/10/03 08:00:02;;;;;;;0.80;0.80;;;8.00;99.90;;;;;;5047795;28;20194;-70
2022/10/03 08:03:00;;;;;;;1.17;1.08;;;8.10;99.90;;;;;;5032433;28;20218;-71
2022/10/03 08:06:14;;;;;;;0.88;0.88;;;8.20;99.90;;;;;;5047717;28;20198;-70
2022/10/03 08:08:52;;;;;;;0.70;0.70;;;8.20;99.90;;;;;;5031955;28;20220;-70
2022/10/03 08:11:36;;;;;;;21.38;8.63;;;8.30;99.90;;;;;;5047610;28;20684;-70
2022/10/03 08:14:35;;;;;;;31.90;23.02;;;8.30;99.90;;;;;;5032329;28;20705;-71
2022/10/03 08:17:42;;;;;;;16.45;7.78;;;8.40;99.90;;;;;;5035171;28;20201;-70
2022/10/03 08:20:37;;;;;;;8.93;4.88;;;8.30;99.90;;;;;;5036094;28;20221;-69
2022/10/03 08:23:30;;;;;;;3.65;2.95;;;8.40;99.90;;;;;;5036305;28;20593;-69
2022/10/03 08:26:05;;;;;;;2.78;2.50;;;8.50;99.90;;;;;;5051293;28;20198;-69
2022/10/03 08:28:59;;;;;;;0.70;0.70;;;8.70;99.90;;;;;;5035823;28;20512;-70
2022/10/03 08:31:51;;;;;;;1.02;1.02;;;8.70;99.90;;;;;;5034890;28;20225;-69
2022/10/03 08:34:36;;;;;;;0.70;0.70;;;8.80;99.90;;;;;;5036036;28;20194;-69
2022/10/03 08:37:17;;;;;;;1.15;0.88;;;8.90;99.90;;;;;;5051297;28;20206;-69
2022/10/03 08:40:10;;;;;;;0.70;0.70;;;8.90;99.90;;;;;;5035837;28;20268;-69
2022/10/03 08:43:05;;;;;;;0.80;0.80;;;8.90;99.90;;;;;;5034623;28;20717;-68
2022/10/03 08:45:42;;;;;;;0.60;0.60;;;9.00;99.90;;;;;;5030099;28;20222;-70
2022/10/03 08:48:42;;;;;;;0.60;0.60;;;8.90;99.90;;;;;;5016038;28;20546;-70
2022/10/03 08:51:26;;;;;;;0.60;0.60;;;8.90;99.90;;;;;;5016037;28;20693;-69
2022/10/03 08:54:06;;;;;;;0.70;0.70;;;9.00;99.90;;;;;;5016012;28;20525;-69
2022/10/03 08:57:09;;;;;;;0.60;0.60;;;9.00;99.90;;;;;;5015738;28;20207;-70
2022/10/03 08:59:56;;;;;;;0.63;0.63;;;9.10;99.90;;;;;;5015553;28;20203;-69
2022/10/03 09:02:24;;;;;;;0.60;0.60;;;9.00;99.90;;;;;;5015538;28;20623;-69
2022/10/03 09:05:28;;;;;;;0.77;0.77;;;9.10;99.90;;;;;;5015697;28;20200;-69
2022/10/03 09:08:14;;;;;;;0.60;0.60;;;9.00;99.90;;;;;;5015806;28;20278;-69
2022/10/03 09:11:11;;;;;;;0.60;0.60;;;9.10;99.90;;;;;;5004434;28;20792;-69
2022/10/03 09:14:03;;;;;;;0.60;0.60;;;9.10;99.90;;;;;;4996735;28;20325;-68
2022/10/03 09:16:50;;;;;;;0.75;0.75;;;9.10;99.90;;;;;;5015325;28;20242;-70
2022/10/03 09:19:41;;;;;;;0.80;0.80;;;9.20;99.90;;;;;;5015424;28;20301;-70
2022/10/03 09:22:12;;;;;;;0.60;0.60;;;9.20;99.90;;;;;;5015332;28;20190;-70
2022/10/03 09:25:04;;;;;;;0.60;0.60;;;9.20;99.90;;;;;;5015221;28;20768;-70
2022/10/03 09:27:57;;;;;;;0.60;0.60;;;9.20;99.90;;;;;;5014317;28;20195;-69
2022/10/03 09:31:02;;;;;;;0.50;0.50;;;9.20;99.90;;;;;;5015120;28;20218;-69
2022/10/03 09:34:24;;;;;;;0.70;0.70;;;9.10;99.90;;;;;;5015037;28;20238;-70
2022/10/03 09:36:59;;;;;;;0.70;0.70;;;9.10;99.90;;;;;;5010223;28;20234;-70
2022/10/03 09:39:56;;;;;;;0.52;0.52;;;9.20;99.90;;;;;;5014923;28;20201;-70
2022/10/03 09:42:40;;;;;;;1.10;0.95;;;9.10;99.90;;;;;;5044174;28;20264;-69
2022/10/03 09:45:30;;;;;;;0.70;0.70;;;9.10;99.90;;;;;;5032522;28;20190;-69
2022/10/03 09:48:10;;;;;;;0.70;0.70;;;9.10;99.90;;;;;;5014879;28;20579;-69
2022/10/03 09:50:54;;;;;;;0.80;0.80;;;9.10;99.90;;;;;;5014740;28;20238;-69
2022/10/03 09:53:32;;;;;;;0.80;0.80;;;9.10;99.90;;;;;;5014636;28;20191;-69
2022/10/03 09:56:32;;;;;;;0.70;0.70;;;9.20;99.90;;;;;;5014801;28;20207;-70
2022/10/03 09:59:17;;;;;;;0.70;0.70;;;9.20;99.90;;;;;;5014713;28;20623;-70
2022/10/03 10:02:04;;;;;;;0.70;0.70;;;9.30;99.90;;;;;;5014491;28;20191;-69
2022/10/03 10:04:49;;;;;;;0.80;0.80;;;9.40;99.90;;;;;;5014543;28;20290;-69
2022/10/03 10:07:42;;;;;;;0.80;0.80;;;9.50;99.90;;;;;;5046351;28;20693;-70
2022/10/03 10:10:45;;;;;;;0.60;0.60;;;9.40;99.90;;;;;;5014568;28;20191;-70
2022/10/03 10:13:54;;;;;;;0.80;0.80;;;9.40;99.90;;;;;;5046391;28;20198;-70
2022/10/03 10:16:44;;;;;;;0.70;0.70;;;9.40;99.90;;;;;;5014122;28;20210;-69
2022/10/03 10:19:28;;;;;;;0.70;0.70;;;9.30;99.90;;;;;;5014116;28;20222;-69
2022/10/03 10:22:06;;;;;;;0.70;0.70;;;9.20;99.90;;;;;;5014301;28;20650;-69
2022/10/03 10:24:50;;;;;;;0.70;0.70;;;9.20;99.90;;;;;;5014091;28;20258;-69
2022/10/03 10:27:32;;;;;;;0.60;0.60;;;9.30;99.90;;;;;;5029443;28;20567;-69
2022/10/03 10:30:19;;;;;;;0.65;0.65;;;9.30;99.90;;;;;;5014037;28;20231;-70
2022/10/03 10:33:19;;;;;;;0.70;0.70;;;9.10;99.90;;;;;;5029317;28;20712;-70
2022/10/03 10:35:53;;;;;;;0.65;0.65;;;9.10;99.90;;;;;;5013904;28;20207;-70
2022/10/03 10:38:25;;;;;;;0.88;0.88;;;8.90;99.90;;;;;;5025776;28;20202;-70
2022/10/03 10:41:28;;;;;;;1.55;1.45;;;9.00;99.90;;;;;;5033980;28;20707;-69
2022/10/03 10:44:15;;;;;;;0.60;0.60;;;9.10;99.90;;;;;;5033669;28;20194;-69
2022/10/03 10:47:31;;;;;;;0.70;0.70;;;9.10;99.90;;;;;;5033071;28;20593;-70
2022/10/03 10:50:09;;;;;;;0.70;0.70;;;9.00;99.90;;;;;;5013806;28;20692;-70
2022/10/03 10:52:53;;;;;;;0.70;0.70;;;8.90;99.90;;;;;;5045367;28;20689;-69
2022/10/03 10:55:59;;;;;;;0.70;0.70;;;8.80;99.90;;;;;;5013686;28;20629;-69
2022/10/03 10:58:44;;;;;;;0.52;0.52;;;8.80;99.90;;;;;;5013405;28;20270;-70
2022/10/03 11:02:02;;;;;;;0.70;0.70;;;8.60;99.90;;;;;;5013666;28;20226;-70
2022/10/03 11:04:49;;;;;;;0.80;0.80;;;8.60;99.90;;;;;;5013248;28;20262;-70
2022/10/03 11:07:39;;;;;;;0.60;0.60;;;8.60;99.90;;;;;;5045394;28;20199;-70
2022/10/03 11:10:33;;;;;;;0.60;0.60;;;8.60;99.90;;;;;;5013598;28;20621;-69
2022/10/03 11:13:18;;;;;;;0.63;0.63;;;8.50;99.90;;;;;;5013442;28;20278;-69
2022/10/03 11:16:19;;;;;;;0.60;0.60;;;8.50;99.90;;;;;;5013345;28;20210;-70
2022/10/03 11:19:19;;;;;;;0.60;0.60;;;8.40;99.90;;;;;;5028543;28;20555;-69
2022/10/03 11:22:07;;;;;;;0.60;0.60;;;8.50;99.90;;;;;;5013347;28;20190;-69
2022/10/03 11:24:54;;;;;;;0.70;0.70;;;8.50;99.90;;;;;;5013385;28;20201;-70
2022/10/03 11:27:34;;;;;;;0.60;0.60;;;8.50;99.90;;;;;;5013229;28;20194;-69
2022/10/03 11:30:14;;;;;;;0.60;0.60;;;8.60;99.90;;;;;;5013071;28;20230;-70
2022/10/03 11:33:01;;;;;;;0.60;0.60;;;8.60;99.90;;;;;;5013053;28;20206;-71
2022/10/03 11:35:32;;;;;;;0.90;0.90;;;8.70;99.90;;;;;;5028022;28;20205;-70
2022/10/03 11:38:12;;;;;;;0.70;0.70;;;8.80;99.90;;;;;;5032879;28;20669;-71
2022/10/03 11:41:10;;;;;;;0.80;0.80;;;8.80;99.90;;;;;;5032924;28;20197;-71
2022/10/03 11:43:50;;;;;;;0.70;0.70;;;8.90;99.90;;;;;;5032562;28;20700;-70
2022/10/03 11:46:43;;;;;;;0.60;0.60;;;8.90;99.90;;;;;;5020936;28;20194;-70
2022/10/03 11:49:41;;;;;;;0.60;0.60;;;8.70;99.90;;;;;;5044751;28;20670;-70
2022/10/03 11:52:26;;;;;;;0.60;0.60;;;8.80;99.90;;;;;;5012446;28;20191;-70
2022/10/03 11:55:24;;;;;;;0.57;0.57;;;8.90;99.90;;;;;;5012739;28;20264;-70
2022/10/03 11:58:02;;;;;;;0.70;0.70;;;9.00;99.90;;;;;;5012948;28;20579;-70
2022/10/03 12:00:33;;;;;;;0.50;0.50;;;9.10;99.90;;;;;;5012760;28;20186;-70
2022/10/03 12:03:12;;;;;;;1.05;1.05;;;9.20;99.90;;;;;;5013005;28;20197;-70
2022/10/03 12:05:51;;;;;;;1.20;0.93;;;9.30;99.90;;;;;;5012648;28;20218;-70
2022/10/03 12:11:18;;;;;;;0.80;0.80;;;9.40;99.90;;;;;;5012940;28;20206;-70
2022/10/03 12:14:09;;;;;;;0.60;0.60;;;9.50;99.90;;;;;;5027902;28;20203;-70
2022/10/03 12:17:04;;;;;;;0.70;0.70;;;9.40;99.90;;;;;;5012688;28;20242;-69
2022/10/03 12:19:46;;;;;;;0.60;0.60;;;9.30;99.90;;;;;;5027658;28;20195;-70
2022/10/03 12:22:27;;;;;;;0.80;0.80;;;9.30;99.90;;;;;;5027750;28;20253;-70
2022/10/03 12:25:16;;;;;;;0.70;0.70;;;9.40;99.90;;;;;;5012506;28;20624;-70
2022/10/03 12:27:51;;;;;;;0.60;0.60;;;9.40;99.90;;;;;;5012447;28;20510;-70
2022/10/03 12:30:18;;;;;;;0.70;0.70;;;9.60;99.90;;;;;;5016017;28;20381;-71
2022/10/03 12:32:59;;;;;;;0.70;0.70;;;9.60;99.90;;;;;;5032134;28;20198;-71
2022/10/03 12:35:46;;;;;;;0.52;0.52;;;9.70;99.90;;;;;;5031982;28;20189;-70
2022/10/03 12:38:28;;;;;;;0.60;0.60;;;9.90;99.90;;;;;;5014391;28;20732;-71
2022/10/03 12:41:26;;;;;;;0.70;0.70;;;9.90;99.90;;;;;;5032161;28;20190;-70
2022/10/03 12:44:13;;;;;;;0.60;0.60;;;9.90;99.90;;;;;;5032152;28;20604;-70
2022/10/03 12:47:07;;;;;;;0.60;0.60;;;9.80;99.90;;;;;;5016760;28;20214;-70
2022/10/03 12:49:38;;;;;;;3.58;2.40;;;9.80;99.90;;;;;;5012264;28;20218;-70
2022/10/03 12:52:25;;;;;;;1.25;1.15;;;9.90;99.90;;;;;;5012387;28;20202;-70
2022/10/03 12:55:02;;;;;;;0.60;0.60;;;9.90;99.90;;;;;;5012274;28;20265;-70
2022/10/03 12:57:43;;;;;;;0.60;0.60;;;9.90;99.90;;;;;;5012155;28;20191;-70
2022/10/03 13:00:22;;;;;;;0.60;0.60;;;10.00;99.90;;;;;;5012231;28;20198;-70
2022/10/03 13:03:28;;;;;;;0.60;0.60;;;9.90;99.90;;;;;;5012671;28;20677;-70
2022/10/03 13:06:00;;;;;;;0.73;0.73;;;9.90;99.90;;;;;;4990380;28;20202;-70
2022/10/03 13:09:11;;;;;;;1.02;1.00;;;10.00;99.90;;;;;;5015241;28;20199;-70
2022/10/03 13:11:46;;;;;;;0.60;0.60;;;10.10;99.90;;;;;;5015348;28;20190;-71
2022/10/03 13:14:33;;;;;;;0.80;0.80;;;10.30;99.90;;;;;;5015566;28;20212;-71
2022/10/03 13:17:26;;;;;;;0.82;0.82;;;10.50;99.90;;;;;;5015408;28;20206;-71
2022/10/03 13:20:21;;;;;;;0.60;0.60;;;10.50;99.90;;;;;;5015609;28;20252;-71
2022/10/03 13:23:06;;;;;;;0.70;0.70;;;10.50;99.90;;;;;;5015428;28;20561;-71
2022/10/03 13:25:44;;;;;;;0.50;0.50;;;10.60;99.90;;;;;;5015199;28;20191;-71
2022/10/03 13:28:19;;;;;;;0.73;0.73;;;10.60;99.90;;;;;;5031997;28;20257;-71
2022/10/03 13:30:52;;;;;;;2.22;2.03;;;10.60;99.90;;;;;;5034912;28;20228;-71
2022/10/03 13:33:28;;;;;;;0.73;0.70;;;10.60;99.90;;;;;;5033820;28;20202;-70
2022/10/03 13:36:04;;;;;;;0.68;0.68;;;10.50;99.90;;;;;;5034899;28;20265;-71
2022/10/03 13:39:06;;;;;;;1.05;1.05;;;10.40;99.90;;;;;;5034576;28;20193;-71
2022/10/03 13:41:59;;;;;;;3.60;1.50;;;10.20;99.90;;;;;;5034682;28;20182;-70
2022/10/03 13:44:47;;;;;;;5.57;3.05;;;10.20;99.90;;;;;;5034763;28;20190;-70
2022/10/03 13:47:33;;;;;;;18.25;12.45;;;10.20;99.90;;;;;;5014805;28;20199;-71
2022/10/03 13:50:20;;;;;;;6.88;4.93;;;10.10;99.90;;;;;;5046878;28;20224;-71
2022/10/03 13:52:52;;;;;;;0.80;0.80;;;10.10;99.90;;;;;;5013566;28;20199;-71
2022/10/03 13:55:52;;;;;;;3.25;1.67;;;10.10;99.90;;;;;;5014837;28;20230;-70
2022/10/03 13:58:52;;;;;;;1.95;1.13;;;10.10;99.90;;;;;;5014696;28;20191;-70
2022/10/03 14:01:23;;;;;;;0.80;0.80;;;10.30;99.90;;;;;;5046804;28;20198;-71
2022/10/03 14:04:37;;;;;;;0.60;0.60;;;10.40;99.90;;;;;;5021785;28;20196;-70
2022/10/03 14:07:27;;;;;;;0.80;0.80;;;10.40;99.90;;;;;;5033852;28;20289;-71
2022/10/03 14:09:56;;;;;;;2.00;1.65;;;10.40;99.90;;;;;;5034428;28;20656;-70
2022/10/03 14:12:55;;;;;;;2.97;2.70;;;10.30;99.90;;;;;;5034095;28;20277;-70
2022/10/03 14:15:52;;;;;;;1.73;1.58;;;10.20;99.90;;;;;;5033618;28;20213;-70
2022/10/03 14:18:27;;;;;;;6.70;4.13;;;10.10;99.90;;;;;;5049548;28;20685;-70
2022/10/03 14:21:14;;;;;;;7.82;2.10;;;10.10;99.90;;;;;;5034075;28;20198;-70
2022/10/03 14:23:44;;;;;;;1.50;1.13;;;9.90;99.90;;;;;;5033580;28;20288;-70
2022/10/03 14:26:16;;;;;;;0.70;0.70;;;9.90;99.90;;;;;;5033965;28;20221;-70
2022/10/03 14:28:45;;;;;;;1.10;0.93;;;9.90;99.90;;;;;;5033589;28;20234;-70
2022/10/03 14:31:34;;;;;;;0.75;0.75;;;9.90;99.90;;;;;;5033857;28;20205;-70
2022/10/03 14:34:35;;;;;;;6.30;3.47;;;9.90;99.90;;;;;;5033894;28;20229;-70
2022/10/03 14:37:20;;;;;;;1.05;0.88;;;9.80;99.90;;;;;;5032888;28;20299;-70
2022/10/03 14:40:07;;;;;;;1.35;0.88;;;9.80;99.90;;;;;;5033657;28;20665;-70
2022/10/03 14:42:46;;;;;;;1.42;1.33;;;9.70;99.90;;;;;;5033526;28;20569;-70
2022/10/03 14:45:25;;;;;;;1.83;1.13;;;9.60;99.90;;;;;;5030613;28;20218;-71
2022/10/03 14:47:56;;;;;;;2.60;1.85;;;9.50;99.90;;;;;;5013808;28;20272;-70
2022/10/03 14:50:25;;;;;;;0.98;0.98;;;9.40;99.90;;;;;;5013571;28;20652;-70
2022/10/03 14:53:01;;;;;;;3.85;2.05;;;9.20;99.90;;;;;;5013652;28;20667;-71